createdAt,value
2014-07-23T00:00:49.246Z,73.71
2014-07-23T00:01:53.936Z,73.87
2014-07-23T00:02:58.922Z,73.67
2014-07-23T00:04:04.205Z,73.72
2014-07-23T00:05:08.895Z,74.06
2014-07-23T00:06:13.571Z,73.84
2014-07-23T00:07:18.259Z,73.73
2014-07-23T00:08:22.950Z,73.55
2014-07-23T00:09:27.638Z,73.54
2014-07-23T00:10:32.312Z,74.78
2014-07-23T00:11:37.001Z,74.72
2014-07-23T00:12:41.988Z,75.16
2014-07-23T00:13:46.662Z,74.98
2014-07-23T00:14:51.351Z,74.21
2014-07-23T00:15:56.042Z,74.05
2014-07-23T00:17:01.028Z,73.64
2014-07-23T00:18:05.701Z,73.42
2014-07-23T00:19:10.984Z,73.36
2014-07-23T00:20:15.674Z,73.2
2014-07-23T00:21:20.660Z,73.55
2014-07-23T00:22:25.351Z,74.36
2014-07-23T00:23:30.336Z,74.14
2014-07-23T00:24:35.307Z,73.88
2014-07-23T00:25:39.997Z,73.76
2014-07-23T00:26:44.687Z,74.16
2014-07-23T00:27:49.955Z,74.47
2014-07-23T00:28:54.942Z,75.28
2014-07-23T00:29:59.631Z,75.27
2014-07-23T00:31:04.304Z,75.3
2014-07-23T00:32:09.291Z,74.76
2014-07-23T00:33:13.980Z,74.42
2014-07-23T00:34:18.654Z,74.11
2014-07-23T00:35:23.937Z,73.67
2014-07-23T00:36:28.645Z,73.61
2014-07-23T00:37:33.654Z,73.47
2014-07-23T00:38:38.678Z,73.74
2014-07-23T00:39:43.420Z,73.6
2014-07-23T00:40:48.429Z,73.38
2014-07-23T00:41:53.438Z,73.38
2014-07-23T00:42:58.438Z,73.59
2014-07-23T00:44:03.439Z,73.91
2014-07-23T00:45:08.453Z,73.66
2014-07-23T00:46:13.136Z,73.3
2014-07-23T00:47:18.127Z,73.35
2014-07-23T00:48:22.806Z,73.39
2014-07-23T00:49:28.093Z,73.23
2014-07-23T00:50:32.788Z,73.24
2014-07-23T00:51:37.776Z,73.13
2014-07-23T00:52:42.452Z,73.03
2014-07-23T00:53:46.456Z,73.47
2014-07-23T00:54:51.148Z,74
2014-07-23T00:55:56.120Z,74.12
2014-07-23T00:57:01.108Z,73.73
2014-07-23T00:58:05.797Z,73.62
2014-07-23T00:59:10.488Z,73.43
2014-07-23T01:00:15.180Z,73.35
2014-07-23T01:01:19.855Z,73.64
2014-07-23T01:02:24.545Z,73.81
2014-07-23T01:03:29.530Z,73.8
2014-07-23T01:04:34.204Z,74.31
2014-07-23T01:05:39.190Z,74.23
2014-07-23T01:06:43.880Z,73.81
2014-07-23T01:07:48.554Z,73.46
2014-07-23T01:08:53.243Z,73.51
2014-07-23T01:09:58.230Z,73.49
2014-07-23T01:11:02.919Z,73.78
2014-07-23T01:12:07.592Z,74.06
2014-07-23T01:13:12.281Z,73.83
2014-07-23T01:14:16.971Z,73.43
2014-07-23T01:15:21.662Z,73.54
2014-07-23T01:16:26.352Z,73.83
2014-07-23T01:17:31.026Z,74.18
2014-07-23T01:18:35.715Z,74.04
2014-07-23T01:19:40.405Z,74.59
2014-07-23T01:20:45.094Z,74.31
2014-07-23T01:21:49.769Z,74.65
2014-07-23T01:22:54.756Z,74.49
2014-07-23T01:23:59.444Z,74.32
2014-07-23T01:25:04.135Z,74.47
2014-07-23T01:26:08.824Z,74.05
2014-07-23T01:27:13.513Z,74.25
2014-07-23T01:28:18.202Z,74.05
2014-07-23T01:29:23.174Z,74.15
2014-07-23T01:30:27.862Z,74.52
2014-07-23T01:31:32.537Z,74.76
2014-07-23T01:32:37.227Z,74.58
2014-07-23T01:33:42.213Z,74.46
2014-07-23T01:34:47.199Z,75.13
2014-07-23T01:35:51.873Z,76.01
2014-07-23T01:36:56.859Z,75.17
2014-07-23T01:38:01.845Z,75.43
2014-07-23T01:39:06.831Z,74.98
2014-07-23T01:40:11.802Z,74.69
2014-07-23T01:41:16.791Z,74.23
2014-07-23T01:42:21.793Z,74.19
2014-07-23T01:43:26.482Z,74.64
2014-07-23T01:44:31.155Z,74.45
2014-07-23T01:45:36.142Z,74.23
2014-07-23T01:46:41.128Z,74.15
2014-07-23T01:47:46.115Z,73.56
2014-07-23T01:48:51.117Z,73.6
2014-07-23T01:49:55.790Z,74.3
2014-07-23T01:51:00.480Z,74.32
2014-07-23T01:52:05.153Z,74.47
2014-07-23T01:53:09.844Z,74.82
2014-07-23T01:54:14.829Z,74.59
2014-07-23T01:55:19.817Z,74.87
2014-07-23T01:56:24.489Z,74.67
2014-07-23T01:57:29.476Z,74.6
2014-07-23T01:58:34.152Z,74.43
2014-07-23T01:59:38.841Z,74.28
2014-07-23T02:00:43.828Z,73.77
2014-07-23T02:01:48.814Z,73.73
2014-07-23T02:02:53.503Z,73.29
2014-07-23T02:03:58.193Z,73.32
2014-07-23T02:05:03.164Z,73.61
2014-07-23T02:06:07.853Z,73.57
2014-07-23T02:07:12.527Z,73.92
2014-07-23T02:08:17.217Z,74.06
2014-07-23T02:09:22.202Z,74.03
2014-07-23T02:10:26.877Z,73.99
2014-07-23T02:11:31.863Z,73.78
2014-07-23T02:12:36.850Z,73.83
2014-07-23T02:13:41.836Z,73.75
2014-07-23T02:14:46.510Z,73.58
2014-07-23T02:15:51.200Z,74.03
2014-07-23T02:16:55.891Z,73.81
2014-07-23T02:18:00.862Z,73.81
2014-07-23T02:19:05.848Z,74.14
2014-07-23T02:20:10.834Z,73.95
2014-07-23T02:21:15.523Z,73.55
2014-07-23T02:22:20.213Z,73.04
2014-07-23T02:23:24.886Z,73.16
2014-07-23T02:24:29.576Z,73.3
2014-07-23T02:25:34.265Z,74.01
2014-07-23T02:26:38.955Z,74.24
2014-07-23T02:27:43.941Z,73.85
2014-07-23T02:28:48.615Z,73.76
2014-07-23T02:29:53.601Z,74.08
2014-07-23T02:30:58.588Z,74.34
2014-07-23T02:32:03.262Z,74.26
2014-07-23T02:33:07.951Z,74.06
2014-07-23T02:34:12.938Z,74.6
2014-07-23T02:35:17.628Z,74.26
2014-07-23T02:36:22.302Z,74.06
2014-07-23T02:37:26.992Z,74.55
2014-07-23T02:38:31.681Z,74.45
2014-07-23T02:39:36.371Z,74.57
2014-07-23T02:40:41.060Z,74.4
2014-07-23T02:41:46.046Z,75.41
2014-07-23T02:42:50.736Z,75.07
2014-07-23T02:43:55.707Z,75.03
2014-07-23T02:45:00.396Z,74.96
2014-07-23T02:46:05.382Z,75.3
2014-07-23T02:47:10.056Z,75.34
2014-07-23T02:48:14.747Z,75.31
2014-07-23T02:49:19.435Z,75.77
2014-07-23T02:50:24.406Z,76.28
2014-07-23T02:51:29.095Z,76.4
2014-07-23T02:52:33.770Z,76.69
2014-07-23T02:53:38.460Z,76.12
2014-07-23T02:54:43.148Z,76.16
2014-07-23T02:55:48.119Z,75.93
2014-07-23T02:56:53.404Z,76.55
2014-07-23T02:57:58.391Z,75.93
2014-07-23T02:59:03.080Z,75.8
2014-07-23T03:00:07.754Z,76.68
2014-07-23T03:01:12.740Z,76.72
2014-07-23T03:02:18.024Z,76.47
2014-07-23T03:03:22.713Z,76.63
2014-07-23T03:04:27.699Z,77.1
2014-07-23T03:05:32.670Z,76.53
2014-07-23T03:06:37.360Z,76.5
2014-07-23T03:07:42.048Z,77.08
2014-07-23T03:08:47.019Z,77.72
2014-07-23T03:09:51.710Z,77.49
2014-07-23T03:10:56.696Z,76.94
2014-07-23T03:12:01.370Z,77.23
2014-07-23T03:13:06.356Z,76.58
2014-07-23T03:14:11.343Z,77.3
2014-07-23T03:15:16.017Z,77.25
2014-07-23T03:16:21.004Z,77.15
2014-07-23T03:17:25.693Z,76.87
2014-07-23T03:18:30.368Z,77.34
2014-07-23T03:19:35.058Z,77.5
2014-07-23T03:20:39.731Z,77.49
2014-07-23T03:21:44.420Z,78.28
2014-07-23T03:22:49.110Z,78.03
2014-07-23T03:23:54.096Z,77.62
2014-07-23T03:24:59.067Z,77.76
2014-07-23T03:26:03.756Z,77.93
2014-07-23T03:27:08.446Z,77.81
2014-07-23T03:28:13.136Z,78.18
2014-07-23T03:29:17.809Z,77.38
2014-07-23T03:30:22.795Z,77.91
2014-07-23T03:31:27.469Z,78.22
2014-07-23T03:32:32.160Z,78.22
2014-07-23T03:33:36.833Z,77.85
2014-07-23T03:34:42.117Z,77
2014-07-23T03:35:47.102Z,78.44
2014-07-23T03:36:51.776Z,77.76
2014-07-23T03:37:56.763Z,77.65
2014-07-23T03:39:01.454Z,77.9
2014-07-23T03:40:06.128Z,77.97
2014-07-23T03:41:10.817Z,77.78
2014-07-23T03:42:15.804Z,76.74
2014-07-23T03:43:20.493Z,76.98
2014-07-23T03:44:24.495Z,77.33
2014-07-23T03:45:29.169Z,76.76
2014-07-23T03:46:33.859Z,76.48
2014-07-23T03:47:38.547Z,76.65
2014-07-23T03:48:43.222Z,75.91
2014-07-23T03:49:47.911Z,77.12
2014-07-23T03:50:52.897Z,75.95
2014-07-23T03:51:57.586Z,76.12
2014-07-23T03:53:02.276Z,76.77
2014-07-23T03:54:06.950Z,76.95
2014-07-23T03:55:11.639Z,76.66
2014-07-23T03:56:16.315Z,76.56
2014-07-23T03:57:21.005Z,76.25
2014-07-23T03:58:26.272Z,76.06
2014-07-23T03:59:31.260Z,76.51
2014-07-23T04:00:36.245Z,76.11
2014-07-23T04:01:40.935Z,77.25
2014-07-23T04:02:45.922Z,77.48
2014-07-23T04:03:50.892Z,77.05
2014-07-23T04:04:55.582Z,77.14
2014-07-23T04:06:00.286Z,76.3
2014-07-23T04:07:04.976Z,75.83
2014-07-23T04:08:09.665Z,76.21
2014-07-23T04:09:14.339Z,76.55
2014-07-23T04:10:19.327Z,77.84
2014-07-23T04:11:24.031Z,78.02
2014-07-23T04:12:28.705Z,78.02
2014-07-23T04:13:33.395Z,77.75
2014-07-23T04:14:38.365Z,77.8
2014-07-23T04:15:43.054Z,77.78
2014-07-23T04:16:47.744Z,77.46
2014-07-23T04:17:52.730Z,76.83
2014-07-23T04:18:57.701Z,76.4
2014-07-23T04:20:02.687Z,76.19
2014-07-23T04:21:07.379Z,76.28
2014-07-23T04:22:12.350Z,75.86
2014-07-23T04:23:17.039Z,76.14
2014-07-23T04:24:21.729Z,75.77
2014-07-23T04:25:26.402Z,75.51
2014-07-23T04:26:31.092Z,75.52
2014-07-23T04:27:36.062Z,75.75
2014-07-23T04:28:40.751Z,76.12
2014-07-23T04:29:45.425Z,75.38
2014-07-23T04:30:50.708Z,75.37
2014-07-23T04:31:55.695Z,75.29
2014-07-23T04:33:00.681Z,75.54
2014-07-23T04:34:05.371Z,75.3
2014-07-23T04:35:10.357Z,75.16
2014-07-23T04:36:15.345Z,75.8
2014-07-23T04:37:20.019Z,76.33
2014-07-23T04:38:25.006Z,76.1
2014-07-23T04:39:29.992Z,76.18
2014-07-23T04:40:34.666Z,75.51
2014-07-23T04:41:39.355Z,75.91
2014-07-23T04:42:44.045Z,76.49
2014-07-23T04:43:48.734Z,76.31
2014-07-23T04:44:53.705Z,75.8
2014-07-23T04:45:58.394Z,76.21
2014-07-23T04:47:03.381Z,76.1
2014-07-23T04:48:08.351Z,75.9
2014-07-23T04:49:13.040Z,75.64
2014-07-23T04:50:18.027Z,75.67
2014-07-23T04:51:23.014Z,75.53
2014-07-23T04:52:27.687Z,75.73
2014-07-23T04:53:32.377Z,76.25
2014-07-23T04:54:37.068Z,76.15
2014-07-23T04:55:41.758Z,75.9
2014-07-23T04:56:46.431Z,75.34
2014-07-23T04:57:50.730Z,74.67
2014-07-23T04:58:55.716Z,74.67
2014-07-23T05:00:00.406Z,75.15
2014-07-23T05:01:05.392Z,75.63
2014-07-23T05:02:10.066Z,75.9
2014-07-23T05:03:14.756Z,75.31
2014-07-23T05:04:19.742Z,75.75
2014-07-23T05:05:24.415Z,75.61
2014-07-23T05:06:29.104Z,74.92
2014-07-23T05:07:33.778Z,74.47
2014-07-23T05:08:38.468Z,74.57
2014-07-23T05:09:43.158Z,75.4
2014-07-23T05:10:47.832Z,75.38
2014-07-23T05:11:52.131Z,75.24
2014-07-23T05:12:56.821Z,75.11
2014-07-23T05:14:01.510Z,75.01
2014-07-23T05:15:06.201Z,74.97
2014-07-23T05:16:11.171Z,74.91
2014-07-23T05:17:15.861Z,75.37
2014-07-23T05:18:20.551Z,75.28
2014-07-23T05:19:25.241Z,75.04
2014-07-23T05:20:29.915Z,74.41
2014-07-23T05:21:35.197Z,74.45
2014-07-23T05:22:39.887Z,75.3
2014-07-23T05:23:44.857Z,75.34
2014-07-23T05:24:49.547Z,74.82
2014-07-23T05:25:54.236Z,75.03
2014-07-23T05:26:59.207Z,74.94
2014-07-23T05:28:03.896Z,74.32
2014-07-23T05:29:08.883Z,73.69
2014-07-23T05:30:13.572Z,74.24
2014-07-23T05:31:18.561Z,74.37
2014-07-23T05:32:23.531Z,74.22
2014-07-23T05:33:28.220Z,73.99
2014-07-23T05:34:32.909Z,74.77
2014-07-23T05:35:37.896Z,75.84
2014-07-23T05:36:42.570Z,75.79
2014-07-23T05:37:47.556Z,75.94
2014-07-23T05:38:52.246Z,76
2014-07-23T05:39:56.919Z,75.93
2014-07-23T05:41:01.906Z,75.5
2014-07-23T05:42:06.580Z,75.52
2014-07-23T05:43:11.269Z,75.74
2014-07-23T05:44:15.943Z,75.74
2014-07-23T05:45:20.635Z,74.98
2014-07-23T05:46:25.605Z,74.94
2014-07-23T05:47:30.294Z,74.33
2014-07-23T05:48:35.281Z,75.21
2014-07-23T05:49:39.970Z,75.09
2014-07-23T05:50:44.645Z,75.4
2014-07-23T05:51:49.928Z,75.71
2014-07-23T05:52:54.914Z,75.3
2014-07-23T05:53:59.901Z,74.48
2014-07-23T05:55:04.590Z,73.55
2014-07-23T05:56:09.873Z,73.21
2014-07-23T05:57:14.547Z,73.55
2014-07-23T05:58:19.237Z,73.89
2014-07-23T05:59:24.520Z,73.48
2014-07-23T06:00:29.194Z,72.92
2014-07-23T06:01:34.180Z,72.13
2014-07-23T06:02:39.463Z,72.85
2014-07-23T06:03:44.434Z,72.17
2014-07-23T06:04:49.717Z,70.42
2014-07-23T06:05:54.704Z,65.42
2014-07-23T06:06:59.690Z,60.48
2014-07-23T06:08:04.660Z,56.74
2014-07-23T06:09:09.349Z,54.62
2014-07-23T06:10:14.042Z,53.83
2014-07-23T06:11:18.715Z,51.99
2014-07-23T06:12:23.405Z,50.69
2014-07-23T06:13:28.391Z,48.97
2014-07-23T06:14:33.080Z,49.93
2014-07-23T06:15:37.770Z,50.58
2014-07-23T06:16:42.460Z,52.83
2014-07-23T06:17:47.133Z,56.07
2014-07-23T06:18:52.135Z,57.95
2014-07-23T06:19:57.418Z,58.94
2014-07-23T06:21:02.108Z,56.85
2014-07-23T06:22:06.797Z,53.85
2014-07-23T06:23:11.783Z,50.76
2014-07-23T06:24:16.473Z,49.69
2014-07-23T06:25:21.163Z,53.42
2014-07-23T06:26:26.148Z,54.64
2014-07-23T06:27:31.137Z,52.47
2014-07-23T06:28:35.827Z,48.43
2014-07-23T06:29:40.515Z,46.1
2014-07-23T06:30:45.205Z,45.47
2014-07-23T06:31:49.894Z,45.67
2014-07-23T06:32:54.585Z,45.59
2014-07-23T06:33:59.570Z,43.1
2014-07-23T06:35:04.260Z,46.68
2014-07-23T06:36:09.543Z,49.49
2014-07-23T06:37:14.529Z,50.45
2014-07-23T06:38:19.516Z,52.19
2014-07-23T06:39:24.205Z,53.56
2014-07-23T06:40:28.895Z,53.01
2014-07-23T06:41:33.881Z,53.03
2014-07-23T06:42:38.868Z,52.13
2014-07-23T06:43:43.856Z,52.35
2014-07-23T06:44:48.154Z,50.32
2014-07-23T06:45:53.437Z,48.83
2014-07-23T06:46:58.128Z,49.53
2014-07-23T06:48:02.817Z,52.38
2014-07-23T06:49:07.803Z,55
2014-07-23T06:50:12.492Z,56.47
2014-07-23T06:51:17.182Z,56.67
2014-07-23T06:52:21.872Z,57.79
2014-07-23T06:53:26.858Z,57.45
2014-07-23T06:54:31.547Z,56.67
2014-07-23T06:55:36.237Z,57.23
2014-07-23T06:56:40.927Z,57.86
2014-07-23T06:57:45.615Z,58.83
2014-07-23T06:58:50.320Z,59.45
2014-07-23T06:59:55.012Z,60.08
2014-07-23T07:00:59.998Z,59.92
2014-07-23T07:02:04.688Z,59.7
2014-07-23T07:03:09.362Z,60.22
2014-07-23T07:04:14.051Z,59.9
2014-07-23T07:05:18.741Z,59.71
2014-07-23T07:06:23.040Z,60.47
2014-07-23T07:07:27.728Z,60.24
2014-07-23T07:08:32.714Z,59.88
2014-07-23T07:09:36.701Z,60.2
2014-07-23T07:10:41.390Z,60.05
2014-07-23T07:11:46.080Z,60.67
2014-07-23T07:12:50.785Z,61.47
2014-07-23T07:13:55.475Z,61.15
2014-07-23T07:14:59.462Z,60.65
2014-07-23T07:16:04.449Z,60.86
2014-07-23T07:17:09.139Z,61.6
2014-07-23T07:18:13.827Z,61.82
2014-07-23T07:19:18.517Z,63.11
2014-07-23T07:20:23.206Z,63.17
2014-07-23T07:21:27.896Z,62
2014-07-23T07:22:32.570Z,61.5
2014-07-23T07:23:37.556Z,61.04
2014-07-23T07:24:42.542Z,61.61
2014-07-23T07:25:47.232Z,61.44
2014-07-23T07:26:52.218Z,61.34
2014-07-23T07:27:56.908Z,61
2014-07-23T07:29:01.582Z,62.03
2014-07-23T07:30:06.271Z,61.73
2014-07-23T07:31:11.259Z,60.09
2014-07-23T07:32:15.949Z,59.61
2014-07-23T07:33:20.638Z,59.62
2014-07-23T07:34:25.327Z,59.39
2014-07-23T07:35:30.017Z,61.21
2014-07-23T07:36:35.004Z,61.54
2014-07-23T07:37:39.677Z,60.6
2014-07-23T07:38:44.367Z,60.62
2014-07-23T07:39:49.057Z,58.32
2014-07-23T07:40:53.059Z,58.59
2014-07-23T07:41:57.748Z,58.73
2014-07-23T07:43:02.437Z,60.33
2014-07-23T07:44:07.111Z,59.38
2014-07-23T07:45:11.800Z,59.8
2014-07-23T07:46:16.491Z,62.29
2014-07-23T07:47:21.478Z,60.73
2014-07-23T07:48:26.167Z,60.02
2014-07-23T07:49:30.857Z,60.2
2014-07-23T07:50:35.546Z,58.64
2014-07-23T07:51:40.220Z,58.43
2014-07-23T07:52:44.910Z,59.05
2014-07-23T07:53:49.896Z,59.53
2014-07-23T07:54:54.882Z,58.93
2014-07-23T08:11:17.459Z,59.03
2014-07-23T08:12:22.446Z,57.25
2014-07-23T08:13:27.135Z,56.55
2014-07-23T08:14:32.169Z,57.5
2014-07-23T08:15:36.858Z,57.1
2014-07-23T08:16:41.844Z,57.06
2014-07-23T08:17:46.848Z,57.36
2014-07-23T08:18:51.538Z,57.42
2014-07-23T08:19:56.227Z,55.94
2014-07-23T08:21:00.917Z,56.06
2014-07-23T08:22:05.606Z,56.02
2014-07-23T08:23:10.890Z,56.48
2014-07-23T08:24:15.579Z,58.76
2014-07-23T08:25:20.566Z,56.92
2014-07-23T08:26:25.254Z,59.56
2014-07-23T08:27:30.241Z,56.6
2014-07-23T08:28:34.931Z,57.35
2014-07-23T08:29:39.620Z,57.39
2014-07-23T08:30:44.607Z,56.64
2014-07-23T08:31:49.593Z,56.91
2014-07-23T08:32:54.580Z,57.99
2014-07-23T08:33:59.270Z,57.53
2014-07-23T08:35:03.961Z,55.56
2014-07-23T08:36:08.946Z,55.68
2014-07-23T08:37:13.932Z,55.08
2014-07-23T08:38:18.622Z,54.69
2014-07-23T08:39:23.310Z,54.34
2014-07-23T08:40:28.000Z,54.44
2014-07-23T08:41:32.689Z,55.26
2014-07-23T08:42:37.676Z,55.19
2014-07-23T08:43:42.663Z,54.8
2014-07-23T08:44:47.634Z,54.8
2014-07-23T08:45:52.323Z,53.44
2014-07-23T08:46:57.014Z,56.29
2014-07-23T08:48:01.703Z,53.61
2014-07-23T08:49:06.393Z,55.97
2014-07-23T08:50:11.098Z,53.36
2014-07-23T08:51:15.787Z,52.31
2014-07-23T08:52:20.477Z,52.73
2014-07-23T08:53:25.166Z,53.44
2014-07-23T08:54:29.840Z,55.02
2014-07-23T08:55:34.530Z,55.6
2014-07-23T08:56:39.515Z,57.33
2014-07-23T08:57:44.205Z,56.87
2014-07-23T08:58:48.894Z,55.3
2014-07-23T08:59:53.881Z,54.31
2014-07-23T09:00:59.166Z,54.7
2014-07-23T09:02:03.855Z,56.4
2014-07-23T09:03:08.545Z,53.5
2014-07-23T09:04:13.233Z,53.2
2014-07-23T09:05:18.221Z,55.8
2014-07-23T09:06:22.926Z,54.96
2014-07-23T09:07:27.614Z,53.98
2014-07-23T09:08:32.305Z,53.29
2014-07-23T09:09:37.291Z,52.96
2014-07-23T09:10:41.980Z,53.47
2014-07-23T09:11:46.701Z,55
2014-07-23T09:12:51.688Z,52.43
2014-07-23T09:13:56.377Z,52.96
2014-07-23T09:15:01.066Z,53.14
2014-07-23T09:16:05.757Z,53.79
2014-07-23T09:17:10.744Z,52.83
2014-07-23T09:18:15.433Z,54.66
2014-07-23T09:19:20.420Z,53.36
2014-07-23T09:20:25.109Z,54.67
2014-07-23T09:21:30.095Z,53.42
2014-07-23T09:22:34.785Z,52.81
2014-07-23T09:23:39.474Z,52.39
2014-07-23T09:24:44.164Z,51.93
2014-07-23T09:25:48.853Z,52.34
2014-07-23T09:26:53.543Z,52.55
2014-07-23T09:27:58.232Z,53.04
2014-07-23T09:29:02.922Z,55.58
2014-07-23T09:30:07.611Z,54.27
2014-07-23T09:31:12.598Z,54.1
2014-07-23T09:32:17.287Z,54.49
2014-07-23T09:33:22.274Z,54.27
2014-07-23T09:34:26.963Z,51.96
2014-07-23T09:35:31.655Z,53.81
2014-07-23T09:36:36.343Z,55.25
2014-07-23T09:37:41.034Z,53.25
2014-07-23T09:38:46.019Z,54.19
2014-07-23T09:39:50.693Z,53.19
2014-07-23T09:40:55.680Z,53.16
2014-07-23T09:42:00.370Z,53.64
2014-07-23T09:43:05.102Z,52.45
2014-07-23T09:44:10.132Z,54.11
2014-07-23T09:45:15.177Z,52.66
2014-07-23T09:46:20.206Z,53.25
2014-07-23T09:47:25.233Z,52.26
2014-07-23T09:48:29.938Z,52.2
2014-07-23T09:49:34.940Z,53.39
2014-07-23T09:50:39.943Z,52.59
2014-07-23T09:51:44.960Z,53.87
2014-07-23T09:52:49.656Z,53.27
2014-07-23T09:53:54.351Z,55.71
2014-07-23T09:54:58.359Z,56.09
2014-07-23T09:56:03.055Z,53.82
2014-07-23T09:57:07.749Z,53.95
2014-07-23T09:58:12.737Z,54.55
2014-07-23T09:59:17.429Z,53.72
2014-07-23T10:00:22.120Z,52.06
2014-07-23T10:01:26.812Z,52.13
2014-07-23T10:02:31.502Z,53.5
2014-07-23T10:03:36.489Z,51.3
2014-07-23T10:04:41.476Z,51.63
2014-07-23T10:05:46.167Z,51.55
2014-07-23T10:06:50.857Z,50.47
2014-07-23T10:07:55.547Z,49.82
2014-07-23T10:09:00.237Z,50.08
2014-07-23T10:10:04.926Z,48.8
2014-07-23T10:11:09.914Z,48.26
2014-07-23T10:12:14.604Z,49.11
2014-07-23T10:13:19.293Z,48.8
2014-07-23T10:14:24.279Z,47.8
2014-07-23T10:15:28.969Z,49.94
2014-07-23T10:16:33.658Z,49.56
2014-07-23T10:17:38.348Z,48.33
2014-07-23T10:18:43.037Z,48.14
2014-07-23T10:19:47.727Z,49.01
2014-07-23T10:20:52.415Z,50.17
2014-07-23T10:21:56.418Z,50.17
2014-07-23T10:23:01.405Z,51.76
2014-07-23T10:24:06.094Z,51.94
2014-07-23T10:25:10.784Z,50.03
2014-07-23T10:26:15.474Z,50.38
2014-07-23T10:27:20.179Z,49.48
2014-07-23T10:28:25.166Z,49.5
2014-07-23T10:29:29.855Z,48.46
2014-07-23T10:30:34.545Z,49.37
2014-07-23T10:31:39.234Z,50.21
2014-07-23T10:32:43.924Z,50.28
2014-07-23T10:33:48.926Z,49.28
2014-07-23T10:34:53.912Z,48.53
2014-07-23T10:35:58.602Z,49.39
2014-07-23T10:37:03.291Z,50.23
2014-07-23T10:38:08.277Z,49.7
2014-07-23T10:39:13.263Z,49.23
2014-07-23T10:40:17.954Z,49.28
2014-07-23T10:41:22.941Z,50.18
2014-07-23T10:42:27.927Z,50.06
2014-07-23T10:43:32.617Z,48.65
2014-07-23T10:44:37.306Z,48.98
2014-07-23T10:45:41.996Z,48.99
2014-07-23T10:46:46.685Z,49.11
2014-07-23T10:47:51.375Z,49.33
2014-07-23T10:48:56.064Z,49.09
2014-07-23T10:50:01.347Z,47.69
2014-07-23T10:51:05.662Z,48.08
2014-07-23T10:52:10.351Z,48.39
2014-07-23T10:53:15.041Z,48.12
2014-07-23T10:54:19.043Z,48.67
2014-07-23T10:55:23.732Z,47.93
2014-07-23T10:56:28.031Z,47.99
2014-07-23T10:57:32.721Z,49.11
2014-07-23T10:58:37.707Z,49.27
2014-07-23T10:59:42.396Z,48.15
2014-07-23T11:00:47.085Z,48.22
2014-07-23T11:01:51.777Z,48.36
2014-07-23T11:02:56.466Z,47.55
2014-07-23T11:04:01.157Z,48.28
2014-07-23T11:05:05.845Z,48.52
2014-07-23T11:06:10.832Z,48.72
2014-07-23T11:07:15.522Z,48.55
2014-07-23T11:08:20.195Z,48.92
2014-07-23T11:09:24.884Z,49.26
2014-07-23T11:10:29.590Z,47.71
2014-07-23T11:11:34.295Z,47.27
2014-07-23T11:12:38.984Z,46.7
2014-07-23T11:13:43.674Z,47.04
2014-07-23T11:14:48.660Z,47.66
2014-07-23T11:15:53.646Z,47.17
2014-07-23T11:16:58.633Z,47.8
2014-07-23T11:18:03.322Z,47.05
2014-07-23T11:19:08.309Z,46.92
2014-07-23T11:20:13.296Z,47.39
2014-07-23T11:21:17.985Z,47.3
2014-07-23T11:22:22.972Z,47.17
2014-07-23T11:23:27.660Z,47.41
2014-07-23T11:24:32.350Z,47.77
2014-07-23T11:25:37.039Z,45.41
2014-07-23T11:26:41.731Z,46.64
2014-07-23T11:27:46.420Z,45.97
2014-07-23T11:28:51.110Z,46.84
2014-07-23T11:29:55.799Z,47.51
2014-07-23T11:31:00.520Z,46.71
2014-07-23T11:32:05.507Z,46.11
2014-07-23T11:33:10.196Z,46.54
2014-07-23T11:34:15.182Z,46.44
2014-07-23T11:35:20.169Z,46.93
2014-07-23T11:36:24.858Z,46.89
2014-07-23T11:37:29.548Z,46.18
2014-07-23T11:38:34.237Z,47.17
2014-07-23T11:39:38.927Z,46.61
2014-07-23T11:40:43.913Z,47.64
2014-07-23T11:41:48.603Z,47.57
2014-07-23T11:42:53.292Z,46.35
2014-07-23T11:43:58.279Z,46.88
2014-07-23T11:45:02.968Z,46.42
2014-07-23T11:46:07.658Z,46.4
2014-07-23T11:47:12.644Z,46.53
2014-07-23T11:48:17.630Z,46.19
2014-07-23T11:49:22.320Z,45.36
2014-07-23T11:50:27.009Z,45.53
2014-07-23T11:51:31.701Z,45.88
2014-07-23T11:52:36.390Z,45.66
2014-07-23T11:53:41.094Z,46.62
2014-07-23T11:54:45.785Z,46.63
2014-07-23T11:55:50.474Z,46.18
2014-07-23T11:56:55.461Z,44.65
2014-07-23T11:58:00.165Z,43.95
2014-07-23T11:59:04.855Z,44.48
2014-07-23T12:00:09.544Z,44.46
2014-07-23T12:01:14.234Z,44.25
2014-07-23T12:02:19.517Z,44.57
2014-07-23T12:03:24.503Z,44.24
2014-07-23T12:04:29.194Z,44.77
2014-07-23T12:05:33.195Z,45.8
2014-07-23T12:06:38.181Z,44.82
2014-07-23T12:07:43.167Z,43.9
2014-07-23T12:08:48.452Z,43.76
2014-07-23T12:09:52.749Z,43.02
2014-07-23T12:10:57.439Z,43.22
2014-07-23T12:12:02.128Z,43.26
2014-07-23T12:13:06.821Z,42.77
2014-07-23T12:14:11.807Z,42.46
2014-07-23T12:15:16.793Z,42.38
2014-07-23T12:16:21.779Z,42.87
2014-07-23T12:17:26.765Z,42.49
2014-07-23T12:18:31.752Z,42.34
2014-07-23T12:19:36.441Z,42.6
2014-07-23T12:20:41.131Z,42.99
2014-07-23T12:21:45.820Z,43.07
2014-07-23T12:22:50.509Z,43.06
2014-07-23T12:23:55.495Z,44
2014-07-23T12:25:00.185Z,43.85
2014-07-23T12:26:04.874Z,44.14
2014-07-23T12:27:09.548Z,44.28
2014-07-23T12:28:14.254Z,44.14
2014-07-23T12:29:18.943Z,44.16
2014-07-23T12:30:23.929Z,43.79
2014-07-23T12:31:28.621Z,43.29
2014-07-23T12:32:33.904Z,43.9
2014-07-23T12:33:38.594Z,43.75
2014-07-23T12:34:43.580Z,42.81
2014-07-23T12:35:48.566Z,42.75
2014-07-23T12:36:53.256Z,43.44
2014-07-23T12:37:57.945Z,43.91
2014-07-23T12:39:03.228Z,44.11
2014-07-23T12:40:07.230Z,44.17
2014-07-23T12:41:11.904Z,43.72
2014-07-23T12:42:16.609Z,42.68
2014-07-23T12:43:21.299Z,44.17
2014-07-23T12:44:26.285Z,43.66
2014-07-23T12:45:30.975Z,43.36
2014-07-23T12:46:35.664Z,42.89
2014-07-23T12:47:40.651Z,43.24
2014-07-23T12:48:45.340Z,42.82
2014-07-23T12:49:50.624Z,42.67
2014-07-23T12:50:55.313Z,41.93
2014-07-23T12:52:00.004Z,42.67
2014-07-23T12:53:04.694Z,41.49
2014-07-23T12:54:09.383Z,41.05
2014-07-23T12:55:14.073Z,40.61
2014-07-23T12:56:19.059Z,39.91
2014-07-23T12:57:24.046Z,41.32
2014-07-23T12:58:28.735Z,41.22
2014-07-23T12:59:33.425Z,41.02
2014-07-23T13:00:38.145Z,41.52
2014-07-23T13:01:43.132Z,40.1
2014-07-23T13:02:48.118Z,40.59
2014-07-23T13:03:52.808Z,42.19
2014-07-23T13:04:57.794Z,42.22
2014-07-23T13:06:02.483Z,42.68
2014-07-23T13:07:07.173Z,42.52
2014-07-23T13:08:11.861Z,42.99
2014-07-23T13:09:16.584Z,42.37
2014-07-23T13:10:21.571Z,42.26
2014-07-23T13:11:26.260Z,41.75
2014-07-23T13:12:30.950Z,42.28
2014-07-23T13:13:35.639Z,42.57
2014-07-23T13:14:40.625Z,43.31
2014-07-23T13:15:45.612Z,43.16
2014-07-23T13:16:50.598Z,44.04
2014-07-23T13:17:55.288Z,43.81
2014-07-23T13:18:59.976Z,43.66
2014-07-23T13:20:05.260Z,44.49
2014-07-23T13:21:10.247Z,44.16
2014-07-23T13:22:15.233Z,44.22
2014-07-23T13:23:19.923Z,44.26
2014-07-23T13:24:24.908Z,44.31
2014-07-23T13:25:29.894Z,44.26
2014-07-23T13:26:34.585Z,44.18
2014-07-23T13:27:39.274Z,43.68
2014-07-23T13:28:44.261Z,44.26
2014-07-23T13:29:48.951Z,44.18
2014-07-23T13:30:53.641Z,44.63
2014-07-23T13:31:58.331Z,44.74
2014-07-23T13:33:03.036Z,44.25
2014-07-23T13:34:07.725Z,43.74
2014-07-23T13:35:12.414Z,43.95
2014-07-23T13:36:17.104Z,46.36
2014-07-23T13:37:21.793Z,43.76
2014-07-23T13:38:26.483Z,43.67
2014-07-23T13:39:31.172Z,44.55
2014-07-23T13:40:35.846Z,43.25
2014-07-23T13:41:40.833Z,43.31
2014-07-23T13:42:45.538Z,44.09
2014-07-23T13:43:50.227Z,43.07
2014-07-23T13:44:54.917Z,41.95
2014-07-23T13:45:59.606Z,43.13
2014-07-23T13:47:04.593Z,42.72
2014-07-23T13:48:09.282Z,42.48
2014-07-23T13:49:13.972Z,43.34
2014-07-23T13:50:19.257Z,42.25
2014-07-23T13:51:24.243Z,41.91
2014-07-23T13:52:28.933Z,42.86
2014-07-23T13:53:33.622Z,41.74
2014-07-23T13:54:38.609Z,40.96
2014-07-23T13:55:43.297Z,41.52
2014-07-23T13:56:48.284Z,40.07
2014-07-23T13:57:52.973Z,41.18
2014-07-23T13:58:57.663Z,40.25
2014-07-23T14:00:02.649Z,40.41
2014-07-23T14:01:07.932Z,40.94
2014-07-23T14:02:12.778Z,41.33
2014-07-23T14:03:17.467Z,40.95
2014-07-23T14:04:22.159Z,41.38
2014-07-23T14:05:26.848Z,41.65
2014-07-23T14:06:31.538Z,40.4
2014-07-23T14:07:36.227Z,40.6
2014-07-23T14:08:41.214Z,39.95
2014-07-23T14:09:45.903Z,40.65
2014-07-23T14:10:51.171Z,40.47
2014-07-23T14:11:55.860Z,40.08
2014-07-23T14:13:00.861Z,40.05